New Orleans, Louisiana
Traffic Map
Current Weather Conditions
New Orleans, Louisiana
Overcast
Overcast
61°
Feels Like: 61°
Wind Chill: 61° Ceiling: 400
Heat Index: 61° Visibility: 5mi
Dew Point: 55° Wind: 8mph
Humidity: 82% Direction: 90° (E)
Pressure: 29.84in Gusts: 0mph
Raw Report DataKVSH 230735Z AUTO 09007KT 5SM OVC004 16/13 A2984 RMK AO1
Traffic Incident Summary
Active as of:
Severity:
Category:
InformationThere was an issue retrieving the traffic information for this location. Please try a different location or try again shortly.
Advertisements
Track Severe Weather on mobile